PWSweather.com
Personal Weather Stations
Station Observations
BULSHOEK
ClanwilliamZA

ClanwilliamZA

Lat: -32.003, Lon: 18.782

Elevation: 213

Station Type: Davis Vantage Pro

High Low Average
Temperature 89.2°F31.8°C 51.0°F10.6°C 67.4°F19.7°C
Dew Point 49.2°F9.6°C 40.5°F4.7°C 45.1°F7.3°C
Winds 8.0 mph 12.9 kmh Calm Calm 1.0 mph SSE1.6 kmh SSE
Wind Gusts 25.0 mph40.2 kmh -- 5.0 mph8.0 kmh
Humidity 78% 20% 49%
Pressure 30.05 in1017.6 mb 29.85 in1010.8 mb -
Precipitation 0.00 in0.0 mm - -
Hour Temp Dew Point Humidity Winds Wind Gusts Pressure Precip Precip Rate Daily Precip Total
12:00 AM 53.0°F11.7°C 44.2°F6.8°C 72% Calm Calm -- 30.05 in1017.6 mb 0.00 in0.0 mm 0.00 in0.0 mm 0.00 in0.0 mm
12:05 AM 52.8°F11.6°C 44.0°F6.7°C 72% Calm Calm -- 30.05 in1017.6 mb 0.00 in0.0 mm 0.00 in0.0 mm 0.00 in0.0 mm
12:10 AM 52.9°F11.6°C 44.1°F6.7°C 72% Calm Calm -- 30.05 in1017.6 mb 0.00 in0.0 mm 0.00 in0.0 mm 0.00 in0.0 mm
12:15 AM 52.8°F11.6°C 44.0°F6.7°C 72% Calm Calm -- 30.05 in1017.6 mb 0.00 in0.0 mm 0.00 in0.0 mm 0.00 in0.0 mm
12:20 AM 52.7°F11.5°C 43.9°F6.6°C 72% Calm Calm -- 30.05 in1017.6 mb 0.00 in0.0 mm 0.00 in0.0 mm 0.00 in0.0 mm
12:25 AM 52.5°F11.4°C 44.1°F6.7°C 73% Calm Calm -- 30.05 in1017.6 mb 0.00 in0.0 mm 0.00 in0.0 mm 0.00 in0.0 mm
12:30 AM 52.7°F11.5°C 44.6°F7.0°C 74% Calm Calm -- 30.05 in1017.6 mb 0.00 in0.0 mm 0.00 in0.0 mm 0.00 in0.0 mm
12:35 AM 52.7°F11.5°C 44.6°F7.0°C 74% Calm Calm -- 30.05 in1017.6 mb 0.00 in0.0 mm 0.00 in0.0 mm 0.00 in0.0 mm
12:40 AM 52.7°F11.5°C 44.6°F7.0°C 74% Calm Calm -- 30.05 in1017.6 mb 0.00 in0.0 mm 0.00 in0.0 mm 0.00 in0.0 mm
12:45 AM 52.6°F11.4°C 44.9°F7.2°C 75% Calm Calm -- 30.04 in1017.3 mb 0.00 in0.0 mm 0.00 in0.0 mm 0.00 in0.0 mm
12:50 AM 52.6°F11.4°C 44.9°F7.2°C 75% Calm Calm -- 30.04 in1017.3 mb 0.00 in0.0 mm 0.00 in0.0 mm 0.00 in0.0 mm
12:55 AM 52.6°F11.4°C 44.9°F7.2°C 75% Calm Calm -- 30.04 in1017.3 mb 0.00 in0.0 mm 0.00 in0.0 mm 0.00 in0.0 mm
01:00 AM 52.7°F11.5°C 45.3°F7.4°C 76% Calm Calm -- 30.04 in1017.3 mb 0.00 in0.0 mm 0.00 in0.0 mm 0.00 in0.0 mm
01:05 AM 52.8°F11.6°C 45.4°F7.4°C 76% Calm Calm -- 30.04 in1017.3 mb 0.00 in0.0 mm 0.00 in0.0 mm 0.00 in0.0 mm
01:10 AM 52.7°F11.5°C 45.3°F7.4°C 76% Calm Calm -- 30.04 in1017.3 mb 0.00 in0.0 mm 0.00 in0.0 mm 0.00 in0.0 mm
01:15 AM 52.7°F11.5°C 45.3°F7.4°C 76% Calm Calm -- 30.04 in1017.3 mb 0.00 in0.0 mm 0.00 in0.0 mm 0.00 in0.0 mm
01:20 AM 52.5°F11.4°C 45.2°F7.3°C 76% Calm Calm -- 30.04 in1017.3 mb 0.00 in0.0 mm 0.00 in0.0 mm 0.00 in0.0 mm
01:25 AM 52.2°F11.2°C 44.5°F6.9°C 75% Calm Calm -- 30.04 in1017.3 mb 0.00 in0.0 mm 0.00 in0.0 mm 0.00 in0.0 mm
01:30 AM 51.9°F11.1°C 43.9°F6.6°C 74% Calm Calm -- 30.04 in1017.3 mb 0.00 in0.0 mm 0.00 in0.0 mm 0.00 in0.0 mm
01:35 AM 52.1°F11.2°C 43.7°F6.5°C 73% Calm Calm -- 30.04 in1017.3 mb 0.00 in0.0 mm 0.00 in0.0 mm 0.00 in0.0 mm
01:40 AM 52.5°F11.4°C 44.5°F6.9°C 74% Calm Calm -- 30.04 in1017.3 mb 0.00 in0.0 mm 0.00 in0.0 mm 0.00 in0.0 mm
01:45 AM 52.8°F11.6°C 44.7°F7.1°C 74% Calm Calm -- 30.04 in1017.3 mb 0.00 in0.0 mm 0.00 in0.0 mm 0.00 in0.0 mm
01:50 AM 52.7°F11.5°C 45.0°F7.2°C 75% Calm Calm -- 30.04 in1017.3 mb 0.00 in0.0 mm 0.00 in0.0 mm 0.00 in0.0 mm
01:55 AM 52.4°F11.3°C 44.7°F7.1°C 75% Calm Calm -- 30.04 in1017.3 mb 0.00 in0.0 mm 0.00 in0.0 mm 0.00 in0.0 mm
02:00 AM 52.0°F11.1°C 44.3°F6.8°C 75% Calm Calm -- 30.04 in1017.3 mb 0.00 in0.0 mm 0.00 in0.0 mm 0.00 in0.0 mm
02:05 AM 51.8°F11.0°C 44.1°F6.7°C 75% Calm Calm -- 30.04 in1017.3 mb 0.00 in0.0 mm 0.00 in0.0 mm 0.00 in0.0 mm
02:10 AM 51.7°F10.9°C 44.0°F6.7°C 75% Calm Calm -- 30.04 in1017.3 mb 0.00 in0.0 mm 0.00 in0.0 mm 0.00 in0.0 mm
02:15 AM 51.6°F10.9°C 43.6°F6.4°C 74% Calm Calm -- 30.04 in1017.3 mb 0.00 in0.0 mm 0.00 in0.0 mm 0.00 in0.0 mm
02:20 AM 51.6°F10.9°C 43.9°F6.6°C 75% Calm Calm -- 30.04 in1017.3 mb 0.00 in0.0 mm 0.00 in0.0 mm 0.00 in0.0 mm
02:25 AM 52.1°F11.2°C 44.8°F7.1°C 76% Calm Calm -- 30.04 in1017.3 mb 0.00 in0.0 mm 0.00 in0.0 mm 0.00 in0.0 mm
02:30 AM 52.1°F11.2°C 44.8°F7.1°C 76% Calm Calm -- 30.03 in1016.9 mb 0.00 in0.0 mm 0.00 in0.0 mm 0.00 in0.0 mm
02:35 AM 52.2°F11.2°C 45.2°F7.3°C 77% Calm Calm -- 30.03 in1016.9 mb 0.00 in0.0 mm 0.00 in0.0 mm 0.00 in0.0 mm
02:40 AM 51.9°F11.1°C 44.9°F7.2°C 77% Calm Calm -- 30.03 in1016.9 mb 0.00 in0.0 mm 0.00 in0.0 mm 0.00 in0.0 mm
02:45 AM 51.4°F10.8°C 44.4°F6.9°C 77% Calm Calm -- 30.04 in1017.3 mb 0.00 in0.0 mm 0.00 in0.0 mm 0.00 in0.0 mm
02:50 AM 51.3°F10.7°C 44.3°F6.8°C 77% Calm Calm -- 30.04 in1017.3 mb 0.00 in0.0 mm 0.00 in0.0 mm 0.00 in0.0 mm
02:55 AM 51.2°F10.7°C 44.2°F6.8°C 77% Calm Calm -- 30.04 in1017.3 mb 0.00 in0.0 mm 0.00 in0.0 mm 0.00 in0.0 mm
03:00 AM 51.1°F10.6°C 44.1°F6.7°C 77% Calm Calm -- 30.03 in1016.9 mb 0.00 in0.0 mm 0.00 in0.0 mm 0.00 in0.0 mm
03:05 AM 51.0°F10.6°C 44.0°F6.7°C 77% Calm Calm -- 30.03 in1016.9 mb 0.00 in0.0 mm 0.00 in0.0 mm 0.00 in0.0 mm
03:10 AM 51.0°F10.6°C 44.0°F6.7°C 77% Calm Calm -- 30.03 in1016.9 mb 0.00 in0.0 mm 0.00 in0.0 mm 0.00 in0.0 mm
03:15 AM 51.5°F10.8°C 44.9°F7.2°C 78% Calm Calm 1.0 mph1.6 kmh 30.03 in1016.9 mb 0.00 in0.0 mm 0.00 in0.0 mm 0.00 in0.0 mm
03:20 AM 51.9°F11.1°C 45.3°F7.4°C 78% Calm Calm 1.0 mph1.6 kmh 30.03 in1016.9 mb 0.00 in0.0 mm 0.00 in0.0 mm 0.00 in0.0 mm
03:25 AM 52.2°F11.2°C 45.2°F7.3°C 77% Calm Calm -- 30.03 in1016.9 mb 0.00 in0.0 mm 0.00 in0.0 mm 0.00 in0.0 mm
03:30 AM 52.6°F11.4°C 45.6°F7.6°C 77% Calm Calm -- 30.03 in1016.9 mb 0.00 in0.0 mm 0.00 in0.0 mm 0.00 in0.0 mm
03:35 AM 53.1°F11.7°C 46.1°F7.8°C 77% Calm Calm -- 30.03 in1016.9 mb 0.00 in0.0 mm 0.00 in0.0 mm 0.00 in0.0 mm
03:40 AM 55.3°F12.9°C 47.9°F8.8°C 76% 0.5 mph SE0.8 kmh SE 9.0 mph14.5 kmh 30.03 in1016.9 mb 0.00 in0.0 mm 0.00 in0.0 mm 0.00 in0.0 mm
03:45 AM 59.8°F15.4°C 49.2°F9.6°C 68% 1.2 mph E1.9 kmh E 9.0 mph14.5 kmh 30.02 in1016.6 mb 0.00 in0.0 mm 0.00 in0.0 mm 0.00 in0.0 mm
03:50 AM 63.2°F17.3°C 49.1°F9.5°C 60% 3.6 mph ESE5.8 kmh ESE 9.0 mph14.5 kmh 30.02 in1016.6 mb 0.00 in0.0 mm 0.00 in0.0 mm 0.00 in0.0 mm
03:55 AM 65.3°F18.5°C 47.7°F8.7°C 53% 4.9 mph ESE7.9 kmh ESE 12.0 mph19.3 kmh 30.02 in1016.6 mb 0.00 in0.0 mm 0.00 in0.0 mm 0.00 in0.0 mm
04:00 AM 64.2°F17.9°C 47.2°F8.4°C 54% 4.4 mph SE7.1 kmh SE 12.0 mph19.3 kmh 30.02 in1016.6 mb 0.00 in0.0 mm 0.00 in0.0 mm 0.00 in0.0 mm
04:10 AM 65.2°F18.4°C 47.1°F8.4°C 52% 4.1 mph ESE6.6 kmh ESE 9.0 mph14.5 kmh 30.02 in1016.6 mb 0.00 in0.0 mm 0.00 in0.0 mm 0.00 in0.0 mm
04:15 AM 62.7°F17.1°C 46.8°F8.2°C 56% 3.5 mph SE5.6 kmh SE 9.0 mph14.5 kmh 30.02 in1016.6 mb 0.00 in0.0 mm 0.00 in0.0 mm 0.00 in0.0 mm
04:20 AM 61.8°F16.6°C 46.4°F8.0°C 57% 3.9 mph SE6.3 kmh SE 10.0 mph16.1 kmh 30.02 in1016.6 mb 0.00 in0.0 mm 0.00 in0.0 mm 0.00 in0.0 mm
04:25 AM 59.9°F15.5°C 46.0°F7.8°C 60% 3.3 mph SE5.3 kmh SE 10.0 mph16.1 kmh 30.02 in1016.6 mb 0.00 in0.0 mm 0.00 in0.0 mm 0.00 in0.0 mm
04:30 AM 59.6°F15.3°C 47.0°F8.3°C 63% 3.3 mph SE5.3 kmh SE 10.0 mph16.1 kmh 30.02 in1016.6 mb 0.00 in0.0 mm 0.00 in0.0 mm 0.00 in0.0 mm
04:35 AM 58.7°F14.8°C 47.0°F8.3°C 65% 3.5 mph SE5.6 kmh SE 10.0 mph16.1 kmh 30.02 in1016.6 mb 0.00 in0.0 mm 0.00 in0.0 mm 0.00 in0.0 mm
04:40 AM 57.7°F14.3°C 46.4°F8.0°C 66% 2.6 mph SE4.2 kmh SE 7.0 mph11.3 kmh 30.02 in1016.6 mb 0.00 in0.0 mm 0.00 in0.0 mm 0.00 in0.0 mm
04:45 AM 56.8°F13.8°C 46.0°F7.8°C 67% 1.6 mph SSE2.6 kmh SSE 6.0 mph9.7 kmh 30.02 in1016.6 mb 0.00 in0.0 mm 0.00 in0.0 mm 0.00 in0.0 mm
04:50 AM 56.2°F13.4°C 45.4°F7.4°C 67% 2.4 mph SE3.9 kmh SE 7.0 mph11.3 kmh 30.02 in1016.6 mb 0.00 in0.0 mm 0.00 in0.0 mm 0.00 in0.0 mm
04:55 AM 55.9°F13.3°C 45.5°F7.5°C 68% 2.1 mph SE3.4 kmh SE 7.0 mph11.3 kmh 30.02 in1016.6 mb 0.00 in0.0 mm 0.00 in0.0 mm 0.00 in0.0 mm
05:00 AM 55.5°F13.1°C 45.5°F7.5°C 69% 1.5 mph SSE2.4 kmh SSE 6.0 mph9.7 kmh 30.02 in1016.6 mb 0.00 in0.0 mm 0.00 in0.0 mm 0.00 in0.0 mm
05:05 AM 55.3°F12.9°C 45.3°F7.4°C 69% 0.3 mph SE0.5 kmh SE 6.0 mph9.7 kmh 30.02 in1016.6 mb 0.00 in0.0 mm 0.00 in0.0 mm 0.00 in0.0 mm
05:10 AM 55.2°F12.9°C 45.6°F7.6°C 70% 0.2 mph SE0.3 kmh SE 4.0 mph6.4 kmh 30.02 in1016.6 mb 0.00 in0.0 mm 0.00 in0.0 mm 0.00 in0.0 mm
05:15 AM 54.9°F12.7°C 45.3°F7.4°C 70% 0.2 mph SE0.3 kmh SE 4.0 mph6.4 kmh 30.02 in1016.6 mb 0.00 in0.0 mm 0.00 in0.0 mm 0.00 in0.0 mm
05:20 AM 54.6°F12.6°C 45.0°F7.2°C 70% Calm Calm 4.0 mph6.4 kmh 30.02 in1016.6 mb 0.00 in0.0 mm 0.00 in0.0 mm 0.00 in0.0 mm
05:25 AM 54.3°F12.4°C 44.7°F7.1°C 70% Calm Calm 1.0 mph1.6 kmh 30.02 in1016.6 mb 0.00 in0.0 mm 0.00 in0.0 mm 0.00 in0.0 mm
05:30 AM 54.1°F12.3°C 44.5°F6.9°C 70% Calm Calm -- 30.02 in1016.6 mb 0.00 in0.0 mm 0.00 in0.0 mm 0.00 in0.0 mm
05:35 AM 53.8°F12.1°C 44.6°F7.0°C 71% Calm Calm 2.0 mph3.2 kmh 30.02 in1016.6 mb 0.00 in0.0 mm 0.00 in0.0 mm 0.00 in0.0 mm
05:40 AM 53.9°F12.2°C 44.7°F7.1°C 71% Calm Calm 2.0 mph3.2 kmh 30.02 in1016.6 mb 0.00 in0.0 mm 0.00 in0.0 mm 0.00 in0.0 mm
05:45 AM 54.2°F12.3°C 45.4°F7.4°C 72% 0.5 mph SE0.8 kmh SE 5.0 mph8.0 kmh 30.02 in1016.6 mb 0.00 in0.0 mm 0.00 in0.0 mm 0.00 in0.0 mm
05:50 AM 54.2°F12.3°C 45.4°F7.4°C 72% 0.6 mph ESE1.0 kmh ESE 5.0 mph8.0 kmh 30.02 in1016.6 mb 0.00 in0.0 mm 0.00 in0.0 mm 0.00 in0.0 mm
05:55 AM 54.2°F12.3°C 45.4°F7.4°C 72% 1.5 mph ESE2.4 kmh ESE 7.0 mph11.3 kmh 30.02 in1016.6 mb 0.00 in0.0 mm 0.00 in0.0 mm 0.00 in0.0 mm
06:00 AM 54.4°F12.4°C 45.6°F7.6°C 72% 2.7 mph ESE4.3 kmh ESE 10.0 mph16.1 kmh 30.02 in1016.6 mb 0.00 in0.0 mm 0.00 in0.0 mm 0.00 in0.0 mm
06:05 AM 55.4°F13.0°C 46.2°F7.9°C 71% 0.5 mph SE0.8 kmh SE 10.0 mph16.1 kmh 30.02 in1016.6 mb 0.00 in0.0 mm 0.00 in0.0 mm 0.00 in0.0 mm
06:10 AM 56.4°F13.6°C 46.0°F7.8°C 68% 2.9 mph ESE4.7 kmh ESE 8.0 mph12.9 kmh 30.02 in1016.6 mb 0.00 in0.0 mm 0.00 in0.0 mm 0.00 in0.0 mm
06:15 AM 57.6°F14.2°C 45.9°F7.7°C 65% 5.3 mph SE8.5 kmh SE 10.0 mph16.1 kmh 30.01 in1016.3 mb 0.00 in0.0 mm 0.00 in0.0 mm 0.00 in0.0 mm
06:20 AM 58.0°F14.4°C 45.9°F7.7°C 64% 3.7 mph SE6.0 kmh SE 10.0 mph16.1 kmh 30.01 in1016.3 mb 0.00 in0.0 mm 0.00 in0.0 mm 0.00 in0.0 mm
06:25 AM 57.5°F14.2°C 45.4°F7.4°C 64% 4.3 mph SE6.9 kmh SE 10.0 mph16.1 kmh 30.01 in1016.3 mb 0.00 in0.0 mm 0.00 in0.0 mm 0.00 in0.0 mm
06:30 AM 58.4°F14.7°C 45.9°F7.7°C 63% 5.0 mph SE8.0 kmh SE 14.0 mph22.5 kmh 30.01 in1016.3 mb 0.00 in0.0 mm 0.00 in0.0 mm 0.00 in0.0 mm
06:35 AM 58.3°F14.6°C 46.2°F7.9°C 64% 5.4 mph SE8.7 kmh SE 14.0 mph22.5 kmh 30.01 in1016.3 mb 0.00 in0.0 mm 0.00 in0.0 mm 0.00 in0.0 mm
06:40 AM 57.7°F14.3°C 45.6°F7.6°C 64% 6.0 mph SE9.7 kmh SE 13.0 mph20.9 kmh 30.01 in1016.3 mb 0.00 in0.0 mm 0.00 in0.0 mm 0.00 in0.0 mm
06:45 AM 59.1°F15.1°C 46.1°F7.8°C 62% 6.8 mph SE10.9 kmh SE 13.0 mph20.9 kmh 30.01 in1016.3 mb 0.00 in0.0 mm 0.00 in0.0 mm 0.00 in0.0 mm
06:50 AM 60.0°F15.6°C 46.1°F7.8°C 60% 6.6 mph SE10.6 kmh SE 16.0 mph25.7 kmh 30.01 in1016.3 mb 0.00 in0.0 mm 0.00 in0.0 mm 0.00 in0.0 mm
06:55 AM 59.6°F15.3°C 45.7°F7.6°C 60% 5.8 mph SE9.3 kmh SE 16.0 mph25.7 kmh 30.01 in1016.3 mb 0.00 in0.0 mm 0.00 in0.0 mm 0.00 in0.0 mm
07:00 AM 60.4°F15.8°C 46.0°F7.8°C 59% 5.9 mph SE9.5 kmh SE 13.0 mph20.9 kmh 30.01 in1016.3 mb 0.00 in0.0 mm 0.00 in0.0 mm 0.00 in0.0 mm
07:05 AM 61.0°F16.1°C 46.6°F8.1°C 59% 6.4 mph SE10.3 kmh SE 11.0 mph17.7 kmh 30.01 in1016.3 mb 0.00 in0.0 mm 0.00 in0.0 mm 0.00 in0.0 mm
07:10 AM 61.4°F16.3°C 46.0°F7.8°C 57% 6.3 mph SSE10.1 kmh SSE 11.0 mph17.7 kmh 30.01 in1016.3 mb 0.00 in0.0 mm 0.00 in0.0 mm 0.00 in0.0 mm
07:20 AM 59.3°F15.2°C 45.9°F7.7°C 61% 7.0 mph SE11.3 kmh SE 13.0 mph20.9 kmh 30.01 in1016.3 mb 0.00 in0.0 mm 0.00 in0.0 mm 0.00 in0.0 mm
07:25 AM 59.0°F15.0°C 45.1°F7.3°C 60% 5.0 mph SE8.0 kmh SE 10.0 mph16.1 kmh 30.01 in1016.3 mb 0.00 in0.0 mm 0.00 in0.0 mm 0.00 in0.0 mm
07:30 AM 59.0°F15.0°C 45.1°F7.3°C 60% 5.0 mph SE8.0 kmh SE 10.0 mph16.1 kmh 30.01 in1016.3 mb 0.00 in0.0 mm 0.00 in0.0 mm 0.00 in0.0 mm
07:35 AM 59.0°F15.0°C 45.1°F7.3°C 60% 5.0 mph SE8.0 kmh SE 10.0 mph16.1 kmh 30.01 in1016.3 mb 0.00 in0.0 mm 0.00 in0.0 mm 0.00 in0.0 mm
07:40 AM 59.3°F15.2°C 45.9°F7.7°C 61% 7.0 mph SE11.3 kmh SE 13.0 mph20.9 kmh 30.01 in1016.3 mb 0.00 in0.0 mm 0.00 in0.0 mm 0.00 in0.0 mm
07:45 AM 59.3°F15.2°C 45.9°F7.7°C 61% 7.0 mph SE11.3 kmh SE 13.0 mph20.9 kmh 30.01 in1016.3 mb 0.00 in0.0 mm 0.00 in0.0 mm 0.00 in0.0 mm
07:50 AM 59.3°F15.2°C 45.9°F7.7°C 61% 7.0 mph SE11.3 kmh SE 13.0 mph20.9 kmh 30.01 in1016.3 mb 0.00 in0.0 mm 0.00 in0.0 mm 0.00 in0.0 mm
07:55 AM 59.0°F15.0°C 45.1°F7.3°C 60% 5.0 mph SE8.0 kmh SE 10.0 mph16.1 kmh 30.01 in1016.3 mb 0.00 in0.0 mm 0.00 in0.0 mm 0.00 in0.0 mm
08:00 AM 59.0°F15.0°C 45.1°F7.3°C 60% 5.0 mph SE8.0 kmh SE 10.0 mph16.1 kmh 30.01 in1016.3 mb 0.00 in0.0 mm 0.00 in0.0 mm 0.00 in0.0 mm
08:05 AM 59.0°F15.0°C 45.1°F7.3°C 60% 5.0 mph SE8.0 kmh SE 10.0 mph16.1 kmh 30.01 in1016.3 mb 0.00 in0.0 mm 0.00 in0.0 mm 0.00 in0.0 mm
08:15 AM 58.1°F14.5°C 45.1°F7.3°C 62% Calm Calm 3.0 mph4.8 kmh 30.02 in1016.6 mb 0.00 in0.0 mm 0.00 in0.0 mm 0.00 in0.0 mm
08:20 AM 59.4°F15.2°C 46.4°F8.0°C 62% Calm Calm 5.0 mph8.0 kmh 30.02 in1016.6 mb 0.00 in0.0 mm 0.00 in0.0 mm 0.00 in0.0 mm
08:25 AM 61.3°F16.3°C 47.3°F8.5°C 60% Calm Calm 5.0 mph8.0 kmh 30.02 in1016.6 mb 0.00 in0.0 mm 0.00 in0.0 mm 0.00 in0.0 mm
08:30 AM 63.5°F17.5°C 47.0°F8.3°C 55% 1.0 mph NE1.6 kmh NE 6.0 mph9.7 kmh 30.02 in1016.6 mb 0.00 in0.0 mm 0.00 in0.0 mm 0.00 in0.0 mm
08:35 AM 65.7°F18.7°C 47.1°F8.4°C 51% 2.0 mph ESE3.2 kmh ESE 9.0 mph14.5 kmh 30.02 in1016.6 mb 0.00 in0.0 mm 0.00 in0.0 mm 0.00 in0.0 mm
08:40 AM 67.8°F19.9°C 46.8°F8.2°C 47% 4.0 mph E6.4 kmh E 10.0 mph16.1 kmh 30.02 in1016.6 mb 0.00 in0.0 mm 0.00 in0.0 mm 0.00 in0.0 mm
08:45 AM 69.2°F20.7°C 46.9°F8.3°C 45% 5.0 mph E8.0 kmh E 12.0 mph19.3 kmh 30.02 in1016.6 mb 0.00 in0.0 mm 0.00 in0.0 mm 0.00 in0.0 mm
08:50 AM 70.0°F21.1°C 46.5°F8.1°C 43% 5.0 mph E8.0 kmh E 12.0 mph19.3 kmh 30.02 in1016.6 mb 0.00 in0.0 mm 0.00 in0.0 mm 0.00 in0.0 mm
08:55 AM 70.4°F21.3°C 46.2°F7.9°C 42% 6.0 mph E9.7 kmh E 14.0 mph22.5 kmh 30.02 in1016.6 mb 0.00 in0.0 mm 0.00 in0.0 mm 0.00 in0.0 mm
09:00 AM 70.6°F21.4°C 47.0°F8.3°C 43% 5.0 mph ENE8.0 kmh ENE 12.0 mph19.3 kmh 30.02 in1016.6 mb 0.00 in0.0 mm 0.00 in0.0 mm 0.00 in0.0 mm
09:05 AM 70.7°F21.5°C 46.5°F8.1°C 42% 5.0 mph E8.0 kmh E 13.0 mph20.9 kmh 30.02 in1016.6 mb 0.00 in0.0 mm 0.00 in0.0 mm 0.00 in0.0 mm
09:10 AM 71.0°F21.7°C 46.7°F8.2°C 42% 6.0 mph E9.7 kmh E 15.0 mph24.1 kmh 30.02 in1016.6 mb 0.00 in0.0 mm 0.00 in0.0 mm 0.00 in0.0 mm
09:15 AM 71.3°F21.8°C 46.4°F8.0°C 41% 3.0 mph E4.8 kmh E 12.0 mph19.3 kmh 30.02 in1016.6 mb 0.00 in0.0 mm 0.00 in0.0 mm 0.00 in0.0 mm
09:20 AM 71.5°F21.9°C 46.6°F8.1°C 41% 4.0 mph E6.4 kmh E 9.0 mph14.5 kmh 30.02 in1016.6 mb 0.00 in0.0 mm 0.00 in0.0 mm 0.00 in0.0 mm
09:25 AM 71.8°F22.1°C 46.2°F7.9°C 40% 3.0 mph E4.8 kmh E 8.0 mph12.9 kmh 30.02 in1016.6 mb 0.00 in0.0 mm 0.00 in0.0 mm 0.00 in0.0 mm
09:30 AM 72.2°F22.3°C 46.5°F8.1°C 40% 8.0 mph E12.9 kmh E 18.0 mph29.0 kmh 30.01 in1016.3 mb 0.00 in0.0 mm 0.00 in0.0 mm 0.00 in0.0 mm
09:35 AM 72.5°F22.5°C 46.8°F8.2°C 40% 8.0 mph E12.9 kmh E 18.0 mph29.0 kmh 30.01 in1016.3 mb 0.00 in0.0 mm 0.00 in0.0 mm 0.00 in0.0 mm
09:40 AM 72.8°F22.7°C 46.4°F8.0°C 39% 3.0 mph E4.8 kmh E 10.0 mph16.1 kmh 30.01 in1016.3 mb 0.00 in0.0 mm 0.00 in0.0 mm 0.00 in0.0 mm
09:45 AM 73.3°F22.9°C 46.8°F8.2°C 39% 7.0 mph E11.3 kmh E 25.0 mph40.2 kmh 30.01 in1016.3 mb 0.00 in0.0 mm 0.00 in0.0 mm 0.00 in0.0 mm
09:50 AM 73.8°F23.2°C 46.6°F8.1°C 38% 7.0 mph E11.3 kmh E 14.0 mph22.5 kmh 30.01 in1016.3 mb 0.00 in0.0 mm 0.00 in0.0 mm 0.00 in0.0 mm
09:55 AM 74.3°F23.5°C 47.0°F8.3°C 38% 6.0 mph E9.7 kmh E 15.0 mph24.1 kmh 30.01 in1016.3 mb 0.00 in0.0 mm 0.00 in0.0 mm 0.00 in0.0 mm
10:00 AM 74.5°F23.6°C 46.5°F8.1°C 37% 6.0 mph ENE9.7 kmh ENE 16.0 mph25.7 kmh 30.01 in1016.3 mb 0.00 in0.0 mm 0.00 in0.0 mm 0.00 in0.0 mm
10:05 AM 74.6°F23.7°C 46.6°F8.1°C 37% 6.0 mph ENE9.7 kmh ENE 20.0 mph32.2 kmh 30.01 in1016.3 mb 0.00 in0.0 mm 0.00 in0.0 mm 0.00 in0.0 mm
10:10 AM 75.0°F23.9°C 46.9°F8.3°C 37% 2.0 mph ENE3.2 kmh ENE 14.0 mph22.5 kmh 30.01 in1016.3 mb 0.00 in0.0 mm 0.00 in0.0 mm 0.00 in0.0 mm
10:15 AM 75.5°F24.2°C 46.7°F8.2°C 36% 5.0 mph E8.0 kmh E 13.0 mph20.9 kmh 30.01 in1016.3 mb 0.00 in0.0 mm 0.00 in0.0 mm 0.00 in0.0 mm
10:20 AM 75.8°F24.3°C 47.7°F8.7°C 37% 2.0 mph E3.2 kmh E 11.0 mph17.7 kmh 30.01 in1016.3 mb 0.00 in0.0 mm 0.00 in0.0 mm 0.00 in0.0 mm
10:25 AM 76.5°F24.7°C 47.5°F8.6°C 36% 2.0 mph E3.2 kmh E 12.0 mph19.3 kmh 30.01 in1016.3 mb 0.00 in0.0 mm 0.00 in0.0 mm 0.00 in0.0 mm
10:30 AM 76.7°F24.8°C 47.0°F8.3°C 35% 1.5 mph ENE2.4 kmh ENE 8.0 mph12.9 kmh 30.01 in1016.3 mb 0.00 in0.0 mm 0.00 in0.0 mm 0.00 in0.0 mm
10:35 AM 77.0°F25.0°C 47.2°F8.4°C 35% 1.1 mph ENE1.8 kmh ENE 8.0 mph12.9 kmh 30.01 in1016.3 mb 0.00 in0.0 mm 0.00 in0.0 mm 0.00 in0.0 mm
10:40 AM 77.6°F25.3°C 47.8°F8.8°C 35% 0.1 mph ENE0.2 kmh ENE 7.0 mph11.3 kmh 30.01 in1016.3 mb 0.00 in0.0 mm 0.00 in0.0 mm 0.00 in0.0 mm
10:45 AM 78.3°F25.7°C 46.8°F8.2°C 33% 0.9 mph E1.4 kmh E 6.0 mph9.7 kmh 30.01 in1016.3 mb 0.00 in0.0 mm 0.00 in0.0 mm 0.00 in0.0 mm
10:50 AM 79.1°F26.2°C 47.5°F8.6°C 33% 0.7 mph ENE1.1 kmh ENE 6.0 mph9.7 kmh 30.01 in1016.3 mb 0.00 in0.0 mm 0.00 in0.0 mm 0.00 in0.0 mm
10:55 AM 79.5°F26.4°C 47.0°F8.3°C 32% 0.5 mph ENE0.8 kmh ENE 5.0 mph8.0 kmh 30.01 in1016.3 mb 0.00 in0.0 mm 0.00 in0.0 mm 0.00 in0.0 mm
11:00 AM 79.7°F26.5°C 47.2°F8.4°C 32% 1.6 mph NE2.6 kmh NE 12.0 mph19.3 kmh 30.00 in1015.9 mb 0.00 in0.0 mm 0.00 in0.0 mm 0.00 in0.0 mm
11:05 AM 80.0°F26.7°C 47.5°F8.6°C 32% 0.8 mph ENE1.3 kmh ENE 12.0 mph19.3 kmh 30.00 in1015.9 mb 0.00 in0.0 mm 0.00 in0.0 mm 0.00 in0.0 mm
11:10 AM 80.6°F27.0°C 48.0°F8.9°C 32% 0.6 mph ENE1.0 kmh ENE 7.0 mph11.3 kmh 30.00 in1015.9 mb 0.00 in0.0 mm 0.00 in0.0 mm 0.00 in0.0 mm
11:15 AM 80.9°F27.2°C 47.4°F8.6°C 31% 1.7 mph ENE2.7 kmh ENE 14.0 mph22.5 kmh 29.99 in1015.6 mb 0.00 in0.0 mm 0.00 in0.0 mm 0.00 in0.0 mm
11:20 AM 81.1°F27.3°C 48.4°F9.1°C 32% 0.1 mph E0.2 kmh E 14.0 mph22.5 kmh 29.99 in1015.6 mb 0.00 in0.0 mm 0.00 in0.0 mm 0.00 in0.0 mm
11:25 AM 81.5°F27.5°C 47.9°F8.8°C 31% 0.1 mph SE0.2 kmh SE 3.0 mph4.8 kmh 29.99 in1015.6 mb 0.00 in0.0 mm 0.00 in0.0 mm 0.00 in0.0 mm
11:30 AM 82.0°F27.8°C 47.5°F8.6°C 30% 0.2 mph NNW0.3 kmh NNW 5.0 mph8.0 kmh 29.99 in1015.6 mb 0.00 in0.0 mm 0.00 in0.0 mm 0.00 in0.0 mm
11:35 AM 82.4°F28.0°C 48.7°F9.3°C 31% 1.3 mph ESE2.1 kmh ESE 10.0 mph16.1 kmh 29.99 in1015.6 mb 0.00 in0.0 mm 0.00 in0.0 mm 0.00 in0.0 mm
11:40 AM 83.0°F28.3°C 47.4°F8.6°C 29% 0.7 mph NE1.1 kmh NE 10.0 mph16.1 kmh 29.99 in1015.6 mb 0.00 in0.0 mm 0.00 in0.0 mm 0.00 in0.0 mm
11:45 AM 83.4°F28.6°C 47.8°F8.8°C 29% 0.7 mph ENE1.1 kmh ENE 6.0 mph9.7 kmh 29.98 in1015.2 mb 0.00 in0.0 mm 0.00 in0.0 mm 0.00 in0.0 mm
11:50 AM 83.6°F28.7°C 47.0°F8.3°C 28% 1.1 mph E1.8 kmh E 5.0 mph8.0 kmh 29.98 in1015.2 mb 0.00 in0.0 mm 0.00 in0.0 mm 0.00 in0.0 mm
11:55 AM 84.2°F29.0°C 47.5°F8.6°C 28% 0.2 mph ENE0.3 kmh ENE 5.0 mph8.0 kmh 29.98 in1015.2 mb 0.00 in0.0 mm 0.00 in0.0 mm 0.00 in0.0 mm
12:00 PM 84.5°F29.2°C 46.8°F8.2°C 27% 0.9 mph ENE1.4 kmh ENE 5.0 mph8.0 kmh 29.96 in1014.6 mb 0.00 in0.0 mm 0.00 in0.0 mm 0.00 in0.0 mm
12:05 PM 84.6°F29.2°C 46.9°F8.3°C 27% 1.4 mph NE2.3 kmh NE 10.0 mph16.1 kmh 29.96 in1014.6 mb 0.00 in0.0 mm 0.00 in0.0 mm 0.00 in0.0 mm
12:10 PM 85.2°F29.6°C 46.4°F8.0°C 26% 0.9 mph NE1.4 kmh NE 10.0 mph16.1 kmh 29.96 in1014.6 mb 0.00 in0.0 mm 0.00 in0.0 mm 0.00 in0.0 mm
12:15 PM 85.8°F29.9°C 47.9°F8.8°C 27% 0.8 mph ENE1.3 kmh ENE 5.0 mph8.0 kmh 29.96 in1014.6 mb 0.00 in0.0 mm 0.00 in0.0 mm 0.00 in0.0 mm
12:20 PM 85.5°F29.7°C 47.7°F8.7°C 27% 0.9 mph ENE1.4 kmh ENE 7.0 mph11.3 kmh 29.96 in1014.6 mb 0.00 in0.0 mm 0.00 in0.0 mm 0.00 in0.0 mm
12:25 PM 86.2°F30.1°C 47.3°F8.5°C 26% 0.3 mph NE0.5 kmh NE 7.0 mph11.3 kmh 29.96 in1014.6 mb 0.00 in0.0 mm 0.00 in0.0 mm 0.00 in0.0 mm
12:30 PM 86.7°F30.4°C 47.7°F8.7°C 26% 0.4 mph NE0.6 kmh NE 6.0 mph9.7 kmh 29.95 in1014.2 mb 0.00 in0.0 mm 0.00 in0.0 mm 0.00 in0.0 mm
12:35 PM 86.7°F30.4°C 46.6°F8.1°C 25% 0.4 mph ENE0.6 kmh ENE 6.0 mph9.7 kmh 29.95 in1014.2 mb 0.00 in0.0 mm 0.00 in0.0 mm 0.00 in0.0 mm
12:40 PM 86.8°F30.4°C 47.8°F8.8°C 26% 0.4 mph NNE0.6 kmh NNE 5.0 mph8.0 kmh 29.95 in1014.2 mb 0.00 in0.0 mm 0.00 in0.0 mm 0.00 in0.0 mm
12:45 PM 86.7°F30.4°C 48.7°F9.3°C 27% 0.8 mph NNE1.3 kmh NNE 6.0 mph9.7 kmh 29.94 in1013.9 mb 0.00 in0.0 mm 0.00 in0.0 mm 0.00 in0.0 mm
12:50 PM 86.6°F30.3°C 48.6°F9.2°C 27% Calm Calm 6.0 mph9.7 kmh 29.94 in1013.9 mb 0.00 in0.0 mm 0.00 in0.0 mm 0.00 in0.0 mm
12:55 PM 87.1°F30.6°C 47.0°F8.3°C 25% 0.5 mph NE0.8 kmh NE 7.0 mph11.3 kmh 29.94 in1013.9 mb 0.00 in0.0 mm 0.00 in0.0 mm 0.00 in0.0 mm
01:00 PM 86.9°F30.5°C 46.8°F8.2°C 25% 0.4 mph NW0.6 kmh NW 7.0 mph11.3 kmh 29.93 in1013.5 mb 0.00 in0.0 mm 0.00 in0.0 mm 0.00 in0.0 mm
01:05 PM 87.2°F30.7°C 48.1°F8.9°C 26% Calm Calm 2.0 mph3.2 kmh 29.93 in1013.5 mb 0.00 in0.0 mm 0.00 in0.0 mm 0.00 in0.0 mm
01:10 PM 87.6°F30.9°C 45.2°F7.3°C 23% 0.4 mph NW0.6 kmh NW 4.0 mph6.4 kmh 29.93 in1013.5 mb 0.00 in0.0 mm 0.00 in0.0 mm 0.00 in0.0 mm
01:15 PM 88.1°F31.2°C 47.8°F8.8°C 25% 0.3 mph NW0.5 kmh NW 4.0 mph6.4 kmh 29.91 in1012.9 mb 0.00 in0.0 mm 0.00 in0.0 mm 0.00 in0.0 mm
01:20 PM 88.3°F31.3°C 45.8°F7.7°C 23% 0.5 mph NNW0.8 kmh NNW 7.0 mph11.3 kmh 29.91 in1012.9 mb 0.00 in0.0 mm 0.00 in0.0 mm 0.00 in0.0 mm
01:25 PM 87.9°F31.1°C 46.6°F8.1°C 24% 0.8 mph NNW1.3 kmh NNW 7.0 mph11.3 kmh 29.91 in1012.9 mb 0.00 in0.0 mm 0.00 in0.0 mm 0.00 in0.0 mm
01:30 PM 87.3°F30.7°C 44.9°F7.2°C 23% 1.1 mph NW1.8 kmh NW 5.0 mph8.0 kmh 29.91 in1012.9 mb 0.00 in0.0 mm 0.00 in0.0 mm 0.00 in0.0 mm
01:35 PM 87.5°F30.8°C 45.1°F7.3°C 23% 1.4 mph NW2.3 kmh NW 7.0 mph11.3 kmh 29.91 in1012.9 mb 0.00 in0.0 mm 0.00 in0.0 mm 0.00 in0.0 mm
01:40 PM 87.2°F30.7°C 47.1°F8.4°C 25% 1.5 mph NW2.4 kmh NW 8.0 mph12.9 kmh 29.91 in1012.9 mb 0.00 in0.0 mm 0.00 in0.0 mm 0.00 in0.0 mm
01:45 PM 87.5°F30.8°C 46.2°F7.9°C 24% 0.9 mph NW1.4 kmh NW 8.0 mph12.9 kmh 29.90 in1012.5 mb 0.00 in0.0 mm 0.00 in0.0 mm 0.00 in0.0 mm
01:50 PM 87.7°F30.9°C 45.3°F7.4°C 23% 1.2 mph NNW1.9 kmh NNW 7.0 mph11.3 kmh 29.90 in1012.5 mb 0.00 in0.0 mm 0.00 in0.0 mm 0.00 in0.0 mm
01:55 PM 87.9°F31.1°C 44.3°F6.8°C 22% 1.2 mph NW1.9 kmh NW 12.0 mph19.3 kmh 29.90 in1012.5 mb 0.00 in0.0 mm 0.00 in0.0 mm 0.00 in0.0 mm
02:00 PM 88.2°F31.2°C 44.5°F6.9°C 22% 0.7 mph NW1.1 kmh NW 12.0 mph19.3 kmh 29.89 in1012.2 mb 0.00 in0.0 mm 0.00 in0.0 mm 0.00 in0.0 mm
02:05 PM 88.6°F31.4°C 43.6°F6.4°C 21% 0.2 mph N0.3 kmh N 8.0 mph12.9 kmh 29.89 in1012.2 mb 0.00 in0.0 mm 0.00 in0.0 mm 0.00 in0.0 mm
02:10 PM 88.6°F31.4°C 43.6°F6.4°C 21% 0.2 mph N0.3 kmh N 5.0 mph8.0 kmh 29.89 in1012.2 mb 0.00 in0.0 mm 0.00 in0.0 mm 0.00 in0.0 mm
02:15 PM 88.6°F31.4°C 44.8°F7.1°C 22% 0.3 mph WSW0.5 kmh WSW 5.0 mph8.0 kmh 29.89 in1012.2 mb 0.00 in0.0 mm 0.00 in0.0 mm 0.00 in0.0 mm
02:20 PM 88.4°F31.3°C 44.7°F7.1°C 22% 0.2 mph NW0.3 kmh NW 5.0 mph8.0 kmh 29.89 in1012.2 mb 0.00 in0.0 mm 0.00 in0.0 mm 0.00 in0.0 mm
02:25 PM 88.6°F31.4°C 43.6°F6.4°C 21% 0.6 mph NE1.0 kmh NE 9.0 mph14.5 kmh 29.89 in1012.2 mb 0.00 in0.0 mm 0.00 in0.0 mm 0.00 in0.0 mm
02:30 PM 88.3°F31.3°C 43.4°F6.3°C 21% 1.5 mph NNW2.4 kmh NNW 9.0 mph14.5 kmh 29.88 in1011.9 mb 0.00 in0.0 mm 0.00 in0.0 mm 0.00 in0.0 mm
02:35 PM 87.6°F30.9°C 42.8°F6.0°C 21% 1.2 mph NW1.9 kmh NW 9.0 mph14.5 kmh 29.88 in1011.9 mb 0.00 in0.0 mm 0.00 in0.0 mm 0.00 in0.0 mm
02:40 PM 88.3°F31.3°C 44.6°F7.0°C 22% 0.6 mph N1.0 kmh N 8.0 mph12.9 kmh 29.88 in1011.9 mb 0.00 in0.0 mm 0.00 in0.0 mm 0.00 in0.0 mm
02:45 PM 88.1°F31.2°C 43.2°F6.2°C 21% 2.9 mph NW4.7 kmh NW 15.0 mph24.1 kmh 29.88 in1011.9 mb 0.00 in0.0 mm 0.00 in0.0 mm 0.00 in0.0 mm
02:50 PM 88.1°F31.2°C 41.9°F5.5°C 20% 1.3 mph NW2.1 kmh NW 15.0 mph24.1 kmh 29.88 in1011.9 mb 0.00 in0.0 mm 0.00 in0.0 mm 0.00 in0.0 mm
02:55 PM 88.2°F31.2°C 44.5°F6.9°C 22% 1.2 mph NNW1.9 kmh NNW 12.0 mph19.3 kmh 29.88 in1011.9 mb 0.00 in0.0 mm 0.00 in0.0 mm 0.00 in0.0 mm
03:00 PM 88.3°F31.3°C 43.4°F6.3°C 21% 0.8 mph NNW1.3 kmh NNW 6.0 mph9.7 kmh 29.87 in1011.5 mb 0.00 in0.0 mm 0.00 in0.0 mm 0.00 in0.0 mm
03:05 PM 88.5°F31.4°C 43.5°F6.4°C 21% 0.7 mph N1.1 kmh N 7.0 mph11.3 kmh 29.87 in1011.5 mb 0.00 in0.0 mm 0.00 in0.0 mm 0.00 in0.0 mm
03:10 PM 88.6°F31.4°C 44.8°F7.1°C 22% 0.4 mph N0.6 kmh N 7.0 mph11.3 kmh 29.87 in1011.5 mb 0.00 in0.0 mm 0.00 in0.0 mm 0.00 in0.0 mm
03:15 PM 88.8°F31.6°C 42.5°F5.8°C 20% 0.3 mph NNE0.5 kmh NNE 7.0 mph11.3 kmh 29.87 in1011.5 mb 0.00 in0.0 mm 0.00 in0.0 mm 0.00 in0.0 mm
03:20 PM 89.2°F31.8°C 42.8°F6.0°C 20% 0.1 mph E0.2 kmh E 5.0 mph8.0 kmh 29.87 in1011.5 mb 0.00 in0.0 mm 0.00 in0.0 mm 0.00 in0.0 mm
03:25 PM 89.2°F31.8°C 45.3°F7.4°C 22% Calm Calm 2.0 mph3.2 kmh 29.87 in1011.5 mb 0.00 in0.0 mm 0.00 in0.0 mm 0.00 in0.0 mm
03:30 PM 88.4°F31.3°C 42.2°F5.7°C 20% 0.7 mph NNW1.1 kmh NNW 5.0 mph8.0 kmh 29.87 in1011.5 mb 0.00 in0.0 mm 0.00 in0.0 mm 0.00 in0.0 mm
03:35 PM 88.5°F31.4°C 43.5°F6.4°C 21% 0.1 mph NNW0.2 kmh NNW 5.0 mph8.0 kmh 29.87 in1011.5 mb 0.00 in0.0 mm 0.00 in0.0 mm 0.00 in0.0 mm
03:40 PM 88.6°F31.4°C 42.4°F5.8°C 20% 0.3 mph N0.5 kmh N 6.0 mph9.7 kmh 29.87 in1011.5 mb 0.00 in0.0 mm 0.00 in0.0 mm 0.00 in0.0 mm
03:45 PM 88.8°F31.6°C 45.0°F7.2°C 22% 0.1 mph NNE0.2 kmh NNE 6.0 mph9.7 kmh 29.87 in1011.5 mb 0.00 in0.0 mm 0.00 in0.0 mm 0.00 in0.0 mm
03:50 PM 88.3°F31.3°C 44.6°F7.0°C 22% 0.5 mph NW0.8 kmh NW 5.0 mph8.0 kmh 29.87 in1011.5 mb 0.00 in0.0 mm 0.00 in0.0 mm 0.00 in0.0 mm
03:55 PM 88.1°F31.2°C 43.2°F6.2°C 21% 0.2 mph N0.3 kmh N 5.0 mph8.0 kmh 29.87 in1011.5 mb 0.00 in0.0 mm 0.00 in0.0 mm 0.00 in0.0 mm
04:00 PM 88.2°F31.2°C 43.3°F6.3°C 21% 0.2 mph W0.3 kmh W 3.0 mph4.8 kmh 29.86 in1011.2 mb 0.00 in0.0 mm 0.00 in0.0 mm 0.00 in0.0 mm
04:05 PM 87.7°F30.9°C 44.1°F6.7°C 22% 0.7 mph NW1.1 kmh NW 8.0 mph12.9 kmh 29.86 in1011.2 mb 0.00 in0.0 mm 0.00 in0.0 mm 0.00 in0.0 mm
04:10 PM 87.4°F30.8°C 42.6°F5.9°C 21% 0.5 mph WNW0.8 kmh WNW 8.0 mph12.9 kmh 29.86 in1011.2 mb 0.00 in0.0 mm 0.00 in0.0 mm 0.00 in0.0 mm
04:15 PM 87.4°F30.8°C 42.6°F5.9°C 21% 0.3 mph WNW0.5 kmh WNW 5.0 mph8.0 kmh 29.86 in1011.2 mb 0.00 in0.0 mm 0.00 in0.0 mm 0.00 in0.0 mm
04:20 PM 87.1°F30.6°C 42.4°F5.8°C 21% 0.2 mph N0.3 kmh N 5.0 mph8.0 kmh 29.86 in1011.2 mb 0.00 in0.0 mm 0.00 in0.0 mm 0.00 in0.0 mm
04:25 PM 87.1°F30.6°C 44.8°F7.1°C 23% Calm Calm 4.0 mph6.4 kmh 29.86 in1011.2 mb 0.00 in0.0 mm 0.00 in0.0 mm 0.00 in0.0 mm
04:30 PM 86.8°F30.4°C 44.5°F6.9°C 23% 0.4 mph N0.6 kmh N 6.0 mph9.7 kmh 29.86 in1011.2 mb 0.00 in0.0 mm 0.00 in0.0 mm 0.00 in0.0 mm
04:35 PM 86.6°F30.3°C 46.6°F8.1°C 25% 0.1 mph WNW0.2 kmh WNW 6.0 mph9.7 kmh 29.86 in1011.2 mb 0.00 in0.0 mm 0.00 in0.0 mm 0.00 in0.0 mm
04:40 PM 86.5°F30.3°C 44.3°F6.8°C 23% Calm Calm 2.0 mph3.2 kmh 29.86 in1011.2 mb 0.00 in0.0 mm 0.00 in0.0 mm 0.00 in0.0 mm
04:45 PM 86.4°F30.2°C 45.3°F7.4°C 24% Calm Calm 1.0 mph1.6 kmh 29.86 in1011.2 mb 0.00 in0.0 mm 0.00 in0.0 mm 0.00 in0.0 mm
04:50 PM 85.9°F29.9°C 43.8°F6.6°C 23% 0.4 mph NNW0.6 kmh NNW 5.0 mph8.0 kmh 29.86 in1011.2 mb 0.00 in0.0 mm 0.00 in0.0 mm 0.00 in0.0 mm
04:55 PM 85.7°F29.8°C 45.8°F7.7°C 25% 0.1 mph N0.2 kmh N 5.0 mph8.0 kmh 29.86 in1011.2 mb 0.00 in0.0 mm 0.00 in0.0 mm 0.00 in0.0 mm
05:00 PM 85.5°F29.7°C 44.6°F7.0°C 24% 0.2 mph 0.3 kmh 4.0 mph6.4 kmh 29.85 in1010.8 mb 0.00 in0.0 mm 0.00 in0.0 mm 0.00 in0.0 mm
05:05 PM 85.4°F29.7°C 43.4°F6.3°C 23% Calm Calm 4.0 mph6.4 kmh 29.85 in1010.8 mb 0.00 in0.0 mm 0.00 in0.0 mm 0.00 in0.0 mm
05:10 PM 85.3°F29.6°C 45.5°F7.5°C 25% Calm Calm 1.0 mph1.6 kmh 29.85 in1010.8 mb 0.00 in0.0 mm 0.00 in0.0 mm 0.00 in0.0 mm
05:15 PM 84.9°F29.4°C 42.9°F6.1°C 23% Calm Calm 1.0 mph1.6 kmh 29.85 in1010.8 mb 0.00 in0.0 mm 0.00 in0.0 mm 0.00 in0.0 mm
05:20 PM 84.7°F29.3°C 43.9°F6.6°C 24% Calm Calm 1.0 mph1.6 kmh 29.85 in1010.8 mb 0.00 in0.0 mm 0.00 in0.0 mm 0.00 in0.0 mm
05:25 PM 84.3°F29.1°C 43.6°F6.4°C 24% Calm Calm -- 29.85 in1010.8 mb 0.00 in0.0 mm 0.00 in0.0 mm 0.00 in0.0 mm
05:30 PM 83.8°F28.8°C 43.1°F6.2°C 24% 0.1 mph N0.2 kmh N 2.0 mph3.2 kmh 29.85 in1010.8 mb 0.00 in0.0 mm 0.00 in0.0 mm 0.00 in0.0 mm
05:35 PM 83.2°F28.4°C 42.6°F5.9°C 24% 0.3 mph NNW0.5 kmh NNW 3.0 mph4.8 kmh 29.85 in1010.8 mb 0.00 in0.0 mm 0.00 in0.0 mm 0.00 in0.0 mm
05:40 PM 83.0°F28.3°C 43.5°F6.4°C 25% 0.1 mph N0.2 kmh N 4.0 mph6.4 kmh 29.85 in1010.8 mb 0.00 in0.0 mm 0.00 in0.0 mm 0.00 in0.0 mm
05:45 PM 82.1°F27.8°C 42.8°F6.0°C 25% Calm Calm 4.0 mph6.4 kmh 29.85 in1010.8 mb 0.00 in0.0 mm 0.00 in0.0 mm 0.00 in0.0 mm
05:50 PM 80.9°F27.2°C 42.8°F6.0°C 26% Calm Calm 1.0 mph1.6 kmh 29.85 in1010.8 mb 0.00 in0.0 mm 0.00 in0.0 mm 0.00 in0.0 mm
05:55 PM 79.8°F26.6°C 42.8°F6.0°C 27% Calm Calm -- 29.85 in1010.8 mb 0.00 in0.0 mm 0.00 in0.0 mm 0.00 in0.0 mm
06:00 PM 78.9°F26.1°C 43.0°F6.1°C 28% Calm Calm 1.0 mph1.6 kmh 29.85 in1010.8 mb 0.00 in0.0 mm 0.00 in0.0 mm 0.00 in0.0 mm
06:05 PM 78.2°F25.7°C 42.4°F5.8°C 28% Calm Calm 1.0 mph1.6 kmh 29.85 in1010.8 mb 0.00 in0.0 mm 0.00 in0.0 mm 0.00 in0.0 mm
06:10 PM 77.5°F25.3°C 41.8°F5.4°C 28% Calm Calm -- 29.85 in1010.8 mb 0.00 in0.0 mm 0.00 in0.0 mm 0.00 in0.0 mm
06:15 PM 76.6°F24.8°C 41.0°F5.0°C 28% Calm Calm -- 29.85 in1010.8 mb 0.00 in0.0 mm 0.00 in0.0 mm 0.00 in0.0 mm
06:20 PM 76.0°F24.4°C 40.5°F4.7°C 28% Calm Calm -- 29.85 in1010.8 mb 0.00 in0.0 mm 0.00 in0.0 mm 0.00 in0.0 mm
06:25 PM 75.4°F24.1°C 40.9°F4.9°C 29% Calm Calm -- 29.85 in1010.8 mb 0.00 in0.0 mm 0.00 in0.0 mm 0.00 in0.0 mm
06:30 PM 74.9°F23.8°C 41.4°F5.2°C 30% Calm Calm -- 29.86 in1011.2 mb 0.00 in0.0 mm 0.00 in0.0 mm 0.00 in0.0 mm
06:35 PM 74.2°F23.4°C 40.8°F4.9°C 30% Calm Calm -- 29.86 in1011.2 mb 0.00 in0.0 mm 0.00 in0.0 mm 0.00 in0.0 mm
06:40 PM 73.3°F22.9°C 41.6°F5.3°C 32% Calm Calm -- 29.86 in1011.2 mb 0.00 in0.0 mm 0.00 in0.0 mm 0.00 in0.0 mm
06:45 PM 72.3°F22.4°C 43.1°F6.2°C 35% Calm Calm -- 29.86 in1011.2 mb 0.00 in0.0 mm 0.00 in0.0 mm 0.00 in0.0 mm
06:50 PM 71.1°F21.7°C 44.9°F7.2°C 39% 0.3 mph NE0.5 kmh NE 2.0 mph3.2 kmh 29.86 in1011.2 mb 0.00 in0.0 mm 0.00 in0.0 mm 0.00 in0.0 mm
06:55 PM 69.9°F21.1°C 45.8°F7.7°C 42% 0.2 mph SSE0.3 kmh SSE 2.0 mph3.2 kmh 29.86 in1011.2 mb 0.00 in0.0 mm 0.00 in0.0 mm 0.00 in0.0 mm
07:00 PM 68.8°F20.4°C 47.7°F8.7°C 47% 0.9 mph SSE1.4 kmh SSE 2.0 mph3.2 kmh 29.87 in1011.5 mb 0.00 in0.0 mm 0.00 in0.0 mm 0.00 in0.0 mm
07:05 PM 67.9°F19.9°C 47.5°F8.6°C 48% 0.2 mph SSE0.3 kmh SSE 2.0 mph3.2 kmh 29.87 in1011.5 mb 0.00 in0.0 mm 0.00 in0.0 mm 0.00 in0.0 mm
07:10 PM 67.2°F19.6°C 45.1°F7.3°C 45% Calm Calm 2.0 mph3.2 kmh 29.87 in1011.5 mb 0.00 in0.0 mm 0.00 in0.0 mm 0.00 in0.0 mm
07:15 PM 67.0°F19.4°C 43.8°F6.6°C 43% Calm Calm -- 29.87 in1011.5 mb 0.00 in0.0 mm 0.00 in0.0 mm 0.00 in0.0 mm
07:20 PM 67.0°F19.4°C 42.5°F5.8°C 41% Calm Calm -- 29.87 in1011.5 mb 0.00 in0.0 mm 0.00 in0.0 mm 0.00 in0.0 mm
07:25 PM 66.9°F19.4°C 44.3°F6.8°C 44% Calm Calm -- 29.87 in1011.5 mb 0.00 in0.0 mm 0.00 in0.0 mm 0.00 in0.0 mm
07:30 PM 66.5°F19.2°C 47.3°F8.5°C 50% Calm Calm 1.0 mph1.6 kmh 29.87 in1011.5 mb 0.00 in0.0 mm 0.00 in0.0 mm 0.00 in0.0 mm
07:35 PM 65.9°F18.8°C 46.7°F8.2°C 50% Calm Calm 1.0 mph1.6 kmh 29.87 in1011.5 mb 0.00 in0.0 mm 0.00 in0.0 mm 0.00 in0.0 mm
07:40 PM 65.3°F18.5°C 46.2°F7.9°C 50% Calm Calm 1.0 mph1.6 kmh 29.87 in1011.5 mb 0.00 in0.0 mm 0.00 in0.0 mm 0.00 in0.0 mm
07:45 PM 65.0°F18.3°C 44.3°F6.8°C 47% Calm Calm -- 29.88 in1011.9 mb 0.00 in0.0 mm 0.00 in0.0 mm 0.00 in0.0 mm
07:50 PM 64.8°F18.2°C 44.1°F6.7°C 47% Calm Calm -- 29.88 in1011.9 mb 0.00 in0.0 mm 0.00 in0.0 mm 0.00 in0.0 mm
07:55 PM 64.5°F18.1°C 42.7°F5.9°C 45% Calm Calm -- 29.88 in1011.9 mb 0.00 in0.0 mm 0.00 in0.0 mm 0.00 in0.0 mm
08:00 PM 64.5°F18.1°C 42.1°F5.6°C 44% Calm Calm -- 29.88 in1011.9 mb 0.00 in0.0 mm 0.00 in0.0 mm 0.00 in0.0 mm
08:05 PM 64.9°F18.3°C 41.3°F5.2°C 42% Calm Calm -- 29.88 in1011.9 mb 0.00 in0.0 mm 0.00 in0.0 mm 0.00 in0.0 mm
08:10 PM 65.1°F18.4°C 41.4°F5.2°C 42% 0.1 mph SSE0.2 kmh SSE 1.0 mph1.6 kmh 29.88 in1011.9 mb 0.00 in0.0 mm 0.00 in0.0 mm 0.00 in0.0 mm
08:15 PM 64.9°F18.3°C 45.3°F7.4°C 49% 0.1 mph SSE0.2 kmh SSE 2.0 mph3.2 kmh 29.88 in1011.9 mb 0.00 in0.0 mm 0.00 in0.0 mm 0.00 in0.0 mm
08:20 PM 64.1°F17.8°C 44.0°F6.7°C 48% Calm Calm 2.0 mph3.2 kmh 29.88 in1011.9 mb 0.00 in0.0 mm 0.00 in0.0 mm 0.00 in0.0 mm
08:25 PM 63.8°F17.7°C 45.3°F7.4°C 51% Calm Calm -- 29.88 in1011.9 mb 0.00 in0.0 mm 0.00 in0.0 mm 0.00 in0.0 mm
08:30 PM 63.4°F17.4°C 45.0°F7.2°C 51% Calm Calm -- 29.89 in1012.2 mb 0.00 in0.0 mm 0.00 in0.0 mm 0.00 in0.0 mm
08:35 PM 62.7°F17.1°C 43.8°F6.6°C 50% Calm Calm -- 29.89 in1012.2 mb 0.00 in0.0 mm 0.00 in0.0 mm 0.00 in0.0 mm
08:40 PM 62.2°F16.8°C 42.3°F5.7°C 48% Calm Calm -- 29.89 in1012.2 mb 0.00 in0.0 mm 0.00 in0.0 mm 0.00 in0.0 mm
08:45 PM 62.1°F16.7°C 41.6°F5.3°C 47% Calm Calm -- 29.89 in1012.2 mb 0.00 in0.0 mm 0.00 in0.0 mm 0.00 in0.0 mm
08:50 PM 62.0°F16.7°C 41.5°F5.3°C 47% Calm Calm -- 29.89 in1012.2 mb 0.00 in0.0 mm 0.00 in0.0 mm 0.00 in0.0 mm
08:55 PM 61.8°F16.6°C 42.4°F5.8°C 49% Calm Calm -- 29.89 in1012.2 mb 0.00 in0.0 mm 0.00 in0.0 mm 0.00 in0.0 mm
09:00 PM 61.5°F16.4°C 43.2°F6.2°C 51% Calm Calm -- 29.90 in1012.5 mb 0.00 in0.0 mm 0.00 in0.0 mm 0.00 in0.0 mm
09:05 PM 61.3°F16.3°C 43.5°F6.4°C 52% Calm Calm -- 29.90 in1012.5 mb 0.00 in0.0 mm 0.00 in0.0 mm 0.00 in0.0 mm
09:10 PM 61.0°F16.1°C 46.1°F7.8°C 58% Calm Calm -- 29.90 in1012.5 mb 0.00 in0.0 mm 0.00 in0.0 mm 0.00 in0.0 mm
09:15 PM 60.7°F15.9°C 46.3°F7.9°C 59% Calm Calm 1.0 mph1.6 kmh 29.90 in1012.5 mb 0.00 in0.0 mm 0.00 in0.0 mm 0.00 in0.0 mm
09:20 PM 60.6°F15.9°C 43.9°F6.6°C 54% Calm Calm 1.0 mph1.6 kmh 29.90 in1012.5 mb 0.00 in0.0 mm 0.00 in0.0 mm 0.00 in0.0 mm
09:25 PM 60.9°F16.1°C 42.1°F5.6°C 50% Calm Calm -- 29.90 in1012.5 mb 0.00 in0.0 mm 0.00 in0.0 mm 0.00 in0.0 mm
09:30 PM 61.2°F16.2°C 45.4°F7.4°C 56% Calm Calm -- 29.91 in1012.9 mb 0.00 in0.0 mm 0.00 in0.0 mm 0.00 in0.0 mm
09:35 PM 61.0°F16.1°C 45.2°F7.3°C 56% Calm Calm -- 29.91 in1012.9 mb 0.00 in0.0 mm 0.00 in0.0 mm 0.00 in0.0 mm
09:40 PM 60.4°F15.8°C 44.6°F7.0°C 56% Calm Calm -- 29.91 in1012.9 mb 0.00 in0.0 mm 0.00 in0.0 mm 0.00 in0.0 mm
09:45 PM 59.9°F15.5°C 43.7°F6.5°C 55% Calm Calm -- 29.91 in1012.9 mb 0.00 in0.0 mm 0.00 in0.0 mm 0.00 in0.0 mm
09:50 PM 60.0°F15.6°C 45.2°F7.3°C 58% Calm Calm -- 29.91 in1012.9 mb 0.00 in0.0 mm 0.00 in0.0 mm 0.00 in0.0 mm
09:55 PM 60.0°F15.6°C 46.1°F7.8°C 60% Calm Calm -- 29.91 in1012.9 mb 0.00 in0.0 mm 0.00 in0.0 mm 0.00 in0.0 mm
10:00 PM 59.8°F15.4°C 46.3°F7.9°C 61% Calm Calm -- 29.91 in1012.9 mb 0.00 in0.0 mm 0.00 in0.0 mm 0.00 in0.0 mm
10:05 PM 59.5°F15.3°C 45.2°F7.3°C 59% Calm Calm -- 29.91 in1012.9 mb 0.00 in0.0 mm 0.00 in0.0 mm 0.00 in0.0 mm
10:10 PM 59.4°F15.2°C 45.5°F7.5°C 60% Calm Calm -- 29.91 in1012.9 mb 0.00 in0.0 mm 0.00 in0.0 mm 0.00 in0.0 mm
10:15 PM 59.3°F15.2°C 44.5°F6.9°C 58% Calm Calm -- 29.91 in1012.9 mb 0.00 in0.0 mm 0.00 in0.0 mm 0.00 in0.0 mm
10:20 PM 59.3°F15.2°C 44.1°F6.7°C 57% Calm Calm -- 29.91 in1012.9 mb 0.00 in0.0 mm 0.00 in0.0 mm 0.00 in0.0 mm
10:25 PM 59.0°F15.0°C 44.2°F6.8°C 58% Calm Calm -- 29.91 in1012.9 mb 0.00 in0.0 mm 0.00 in0.0 mm 0.00 in0.0 mm
10:30 PM 58.7°F14.8°C 44.4°F6.9°C 59% Calm Calm -- 29.91 in1012.9 mb 0.00 in0.0 mm 0.00 in0.0 mm 0.00 in0.0 mm
10:35 PM 58.4°F14.7°C 44.1°F6.7°C 59% Calm Calm -- 29.91 in1012.9 mb 0.00 in0.0 mm 0.00 in0.0 mm 0.00 in0.0 mm
10:40 PM 58.1°F14.5°C 44.3°F6.8°C 60% Calm Calm -- 29.91 in1012.9 mb 0.00 in0.0 mm 0.00 in0.0 mm 0.00 in0.0 mm
10:45 PM 57.6°F14.2°C 43.8°F6.6°C 60% Calm Calm -- 29.91 in1012.9 mb 0.00 in0.0 mm 0.00 in0.0 mm 0.00 in0.0 mm
10:50 PM 57.2°F14.0°C 43.9°F6.6°C 61% Calm Calm -- 29.91 in1012.9 mb 0.00 in0.0 mm 0.00 in0.0 mm 0.00 in0.0 mm
10:55 PM 57.0°F13.9°C 44.1°F6.7°C 62% Calm Calm -- 29.91 in1012.9 mb 0.00 in0.0 mm 0.00 in0.0 mm 0.00 in0.0 mm
11:00 PM 56.8°F13.8°C 43.9°F6.6°C 62% Calm Calm -- 29.91 in1012.9 mb 0.00 in0.0 mm 0.00 in0.0 mm 0.00 in0.0 mm
11:05 PM 56.6°F13.7°C 44.2°F6.8°C 63% Calm Calm -- 29.91 in1012.9 mb 0.00 in0.0 mm 0.00 in0.0 mm 0.00 in0.0 mm
11:10 PM 56.6°F13.7°C 42.4°F5.8°C 59% Calm Calm -- 29.91 in1012.9 mb 0.00 in0.0 mm 0.00 in0.0 mm 0.00 in0.0 mm
11:15 PM 56.8°F13.8°C 40.8°F4.9°C 55% Calm Calm -- 29.91 in1012.9 mb 0.00 in0.0 mm 0.00 in0.0 mm 0.00 in0.0 mm
11:20 PM 57.1°F13.9°C 43.8°F6.6°C 61% Calm Calm 1.0 mph1.6 kmh 29.91 in1012.9 mb 0.00 in0.0 mm 0.00 in0.0 mm 0.00 in0.0 mm
11:25 PM 57.4°F14.1°C 45.3°F7.4°C 64% Calm Calm 1.0 mph1.6 kmh 29.91 in1012.9 mb 0.00 in0.0 mm 0.00 in0.0 mm 0.00 in0.0 mm
11:30 PM 57.1°F13.9°C 45.4°F7.4°C 65% Calm Calm -- 29.91 in1012.9 mb 0.00 in0.0 mm 0.00 in0.0 mm 0.00 in0.0 mm
11:35 PM 56.7°F13.7°C 44.2°F6.8°C 63% Calm Calm -- 29.91 in1012.9 mb 0.00 in0.0 mm 0.00 in0.0 mm 0.00 in0.0 mm
11:40 PM 56.6°F13.7°C 43.3°F6.3°C 61% Calm Calm -- 29.91 in1012.9 mb 0.00 in0.0 mm 0.00 in0.0 mm 0.00 in0.0 mm
11:45 PM 56.8°F13.8°C 42.6°F5.9°C 59% Calm Calm -- 29.91 in1012.9 mb 0.00 in0.0 mm 0.00 in0.0 mm 0.00 in0.0 mm
11:50 PM 57.0°F13.9°C 44.5°F6.9°C 63% Calm Calm -- 29.91 in1012.9 mb 0.00 in0.0 mm 0.00 in0.0 mm 0.00 in0.0 mm
11:55 PM 57.1°F13.9°C 45.4°F7.4°C 65% Calm Calm -- 29.91 in1012.9 mb 0.00 in0.0 mm 0.00 in0.0 mm 0.00 in0.0 mm